Nizhniy Novgorod, Russia
Current Conditions -  °F | °C
As of 4:30 AM on Thursday 23 Oct 2014 (Local Time) from UWGG Reporting Station
Light Snow Light Snow  
Wind Chill: -2°   Ceiling: 1500
Heat Index: 10°   Visibility: 6mi
Dew Point:   Wind: 9mph
Humidity: 79%   Direction: 290°WNW
Pressure: 29.97"   Gusts: NA
Location:  56.33°N, 44°E
Report Text: UWGG 230130Z 29004MPS 9000 -SN OVC015 M12/M15 Q1015 NOSIG36450239 RMK QFE754
Loading
Personal Weather Stations






























Interactive Weather Map
Tropical Storm Tracking
New forecast layout! Learn more

10-Day Weather Forecast

Advertisements
Track Severe Weather on mobile